Kingsland, TX (78639)

1:50 AM CST on March 02, 2015 (GMT -0600)
Rivers Edge | Change Station
CLOSE
Current Station
Personal Weather Station
Location: Kingsland, TX
Elevation: 837 ft
Nearby Weather Stations

Elev 837 ft 30.64 °N, 98.41 °W | Updated 59 seconds ago

Overcast
Overcast
38.1 °F
Feels Like 38 °F
N
1.7
Wind Variable Wind from NW

Today
High -- | Low -- °F
--% Chance of Precip.
Yesterday
High -- | Low -- °F
Precip. -- in
6:59 AM 6:33 PM
Waxing Gibbous, 90% visible
Pressure 30.35 in
Visibility -9999.0 miles
Clouds Mostly Cloudy 300 ft
Overcast 800 ft
Windchill 38 °F
Dew Point 37 °F
Humidity 95%
Rainfall 0.00 in
Snow Depth Not available.
UV 0 out of 12
Pollen 8.10 out of 12
Air Quality Not available.
Flu Activity Not available.
METAR KDZB 020735Z AUTO 34005KT BKN003 OVC008 03/03 A3035 RMK AO2 T00310031 PWINO

More Conditions Fewer Conditions

Pressure 30.35 in
Visibility -9999.0 miles
Clouds Mostly Cloudy 300 ft
Overcast 800 ft
Windchill 38 °F
Dew Point 37 °F
Humidity 95%
Rainfall 0.00 in
Snow Depth Not available.
UV 0 out of 12
Pollen 8.10 out of 12
Air Quality Not available.
Flu Activity Not available.
METAR KDZB 020735Z AUTO 34005KT BKN003 OVC008 03/03 A3035 RMK AO2 T00310031 PWINO

More Conditions Fewer Conditions

10-Day Weather Forecast

Almanac

Astronomy

Mar. 02, 2015 Rise Set
Actual Time
Civil Twilight
Nautical Twilight
Astronomical Twilight
Moon
Length of Visible Light
Length of Day
Tomorrow will be .
, % of the Moon is Illuminated

Today's Extremes

State Highs State Lows

Community

WunderPhotos

Upload Photos

1,801,739 photos uploaded!

WunderBlogs® & News

Nearby

Air Quality

  Air Quality AQ Index Pollutant
Not available.

Snow Depth

Station Depth Elevation

Earthquake Activity

City Distance Mag. Time & Date
Minimum magnitude displayed is 2.5.

Coastal Water Temperatures

Place Temperature

Nearby Weather Stations